createdAt,value
2023-03-30T00:00:17.212Z,10.27
2023-03-30T00:01:16.801Z,10.27
2023-03-30T00:02:16.493Z,10.27
2023-03-30T00:03:17.106Z,10.28
2023-03-30T00:04:17.205Z,10.28
2023-03-30T00:05:17.091Z,10.27
2023-03-30T00:06:16.754Z,10.28
2023-03-30T00:07:16.358Z,10.28
2023-03-30T00:08:16.932Z,10.26
2023-03-30T00:09:16.531Z,10.26
2023-03-30T00:10:17.110Z,10.27
2023-03-30T00:11:16.642Z,10.28
2023-03-30T00:12:16.559Z,10.28
2023-03-30T00:13:17.110Z,10.26
2023-03-30T00:14:16.679Z,10.26
2023-03-30T00:15:17.265Z,10.24
2023-03-30T00:16:16.856Z,10.28
2023-03-30T00:17:16.460Z,10.26
2023-03-30T00:18:17.051Z,10.24
2023-03-30T00:19:16.928Z,10.24
2023-03-30T00:20:16.554Z,10.21
2023-03-30T00:21:17.265Z,10.20
2023-03-30T00:22:17.016Z,10.19
2023-03-30T00:23:16.570Z,10.19
2023-03-30T00:24:17.102Z,10.19
2023-03-30T00:25:16.659Z,10.20
2023-03-30T00:26:17.268Z,10.20
2023-03-30T00:27:16.916Z,10.19
2023-03-30T00:28:16.497Z,10.19
2023-03-30T00:29:17.061Z,10.17
2023-03-30T00:30:16.641Z,10.19
2023-03-30T00:31:17.260Z,10.17
2023-03-30T00:32:16.979Z,10.19
2023-03-30T00:33:16.550Z,10.14
2023-03-30T00:34:17.128Z,10.16
2023-03-30T00:35:16.743Z,10.17
2023-03-30T00:36:17.432Z,10.16
2023-03-30T00:37:17.266Z,10.16
2023-03-30T00:38:16.810Z,10.19
2023-03-30T00:39:16.403Z,10.17
2023-03-30T00:40:16.939Z,10.17
2023-03-30T00:41:16.512Z,10.17
2023-03-30T00:42:17.240Z,10.14
2023-03-30T00:43:16.830Z,10.16
2023-03-30T00:44:16.382Z,10.14
2023-03-30T00:45:16.946Z,10.16
2023-03-30T00:46:16.635Z,10.16
2023-03-30T00:47:17.324Z,10.14
2023-03-30T00:48:16.872Z,10.17
2023-03-30T00:49:16.401Z,10.19
2023-03-30T00:50:16.967Z,10.13
2023-03-30T00:51:16.512Z,10.17
2023-03-30T00:52:17.030Z,10.17
2023-03-30T00:53:16.587Z,10.16
2023-03-30T00:54:17.166Z,10.17
2023-03-30T00:55:16.707Z,10.14
2023-03-30T00:56:17.292Z,10.13
2023-03-30T00:57:16.909Z,10.12
2023-03-30T00:58:16.657Z,10.13
2023-03-30T00:59:17.233Z,10.16
2023-03-30T01:00:16.814Z,10.14
2023-03-30T01:01:16.376Z,10.13
2023-03-30T01:02:17.303Z,10.13
2023-03-30T01:03:16.957Z,10.10
2023-03-30T01:04:16.744Z,10.09
2023-03-30T01:05:17.302Z,10.09
2023-03-30T01:06:16.859Z,10.10
2023-03-30T01:07:16.421Z,10.12
2023-03-30T01:08:17.013Z,10.10
2023-03-30T01:09:16.548Z,10.06
2023-03-30T01:10:17.101Z,10.03
2023-03-30T01:11:16.665Z,9.98
2023-03-30T01:12:16.887Z,9.98
2023-03-30T01:13:16.463Z,9.96
2023-03-30T01:14:17.038Z,9.99
2023-03-30T01:15:16.607Z,9.99
2023-03-30T01:16:17.228Z,10.03
2023-03-30T01:17:16.980Z,10.03
2023-03-30T01:18:16.582Z,10.09
2023-03-30T01:19:17.107Z,10.12
2023-03-30T01:20:16.668Z,10.12
2023-03-30T01:21:16.499Z,10.12
2023-03-30T01:22:16.830Z,10.13
2023-03-30T01:23:16.401Z,10.10
2023-03-30T01:24:16.939Z,10.14
2023-03-30T01:25:16.501Z,10.13
2023-03-30T01:26:17.076Z,10.19
2023-03-30T01:27:16.652Z,10.16
2023-03-30T01:28:17.249Z,10.16
2023-03-30T01:29:16.882Z,10.14
2023-03-30T01:30:16.444Z,10.17
2023-03-30T01:31:16.993Z,10.17
2023-03-30T01:32:16.784Z,10.17
2023-03-30T01:33:16.314Z,10.20
2023-03-30T01:34:16.879Z,10.19
2023-03-30T01:35:16.469Z,10.19
2023-03-30T01:36:17.153Z,10.19
2023-03-30T01:37:16.783Z,10.23
2023-03-30T01:38:16.329Z,10.21
2023-03-30T01:39:16.925Z,10.21
2023-03-30T01:40:16.492Z,10.20
2023-03-30T01:41:17.119Z,10.20
2023-03-30T01:42:16.856Z,10.21
2023-03-30T01:43:16.430Z,10.21
2023-03-30T01:44:17.017Z,10.23
2023-03-30T01:45:16.557Z,10.21
2023-03-30T01:46:17.294Z,10.21
2023-03-30T01:47:17.156Z,10.27
2023-03-30T01:48:16.713Z,10.26
2023-03-30T01:49:17.305Z,10.26
2023-03-30T01:50:16.838Z,10.28
2023-03-30T01:51:16.397Z,10.31
2023-03-30T01:52:16.901Z,10.31
2023-03-30T01:53:16.468Z,10.30
2023-03-30T01:54:17.045Z,10.27
2023-03-30T01:55:16.627Z,10.26
2023-03-30T01:56:17.189Z,10.24
2023-03-30T01:57:16.747Z,10.27
2023-03-30T01:58:16.359Z,10.27
2023-03-30T01:59:16.907Z,10.30
2023-03-30T02:00:16.478Z,10.33
2023-03-30T02:01:17.031Z,10.30
2023-03-30T02:02:16.878Z,10.30
2023-03-30T02:03:16.574Z,10.28
2023-03-30T02:04:16.334Z,10.27
2023-03-30T02:05:16.872Z,10.31
2023-03-30T02:06:16.420Z,10.27
2023-03-30T02:07:16.970Z,10.28
2023-03-30T02:08:16.535Z,10.28
2023-03-30T02:09:17.085Z,10.30
2023-03-30T02:10:16.640Z,10.33
2023-03-30T02:11:17.205Z,10.36
2023-03-30T02:12:16.399Z,10.36
2023-03-30T02:13:16.930Z,10.40
2023-03-30T02:14:16.501Z,10.38
2023-03-30T02:15:17.059Z,10.38
2023-03-30T02:16:16.646Z,10.38
2023-03-30T02:17:16.332Z,10.44
2023-03-30T02:18:16.895Z,10.41
2023-03-30T02:19:16.430Z,10.41
2023-03-30T02:20:16.981Z,10.40
2023-03-30T02:21:16.531Z,10.40
2023-03-30T02:22:17.102Z,10.36
2023-03-30T02:23:16.671Z,10.30
2023-03-30T02:24:17.212Z,10.28
2023-03-30T02:25:16.751Z,10.27
2023-03-30T02:26:17.324Z,10.28
2023-03-30T02:27:16.881Z,10.27
2023-03-30T02:28:16.460Z,10.27
2023-03-30T02:29:17.008Z,10.24
2023-03-30T02:30:16.572Z,10.23
2023-03-30T02:31:17.197Z,10.24
2023-03-30T02:32:16.590Z,10.19
2023-03-30T02:33:17.338Z,10.14
2023-03-30T02:34:16.897Z,10.08
2023-03-30T02:35:16.463Z,9.93
2023-03-30T02:36:17.041Z,9.85
2023-03-30T02:37:16.687Z,9.78
2023-03-30T02:38:17.270Z,9.71
2023-03-30T02:39:16.810Z,9.68
2023-03-30T02:40:16.405Z,9.65
2023-03-30T02:41:16.952Z,9.65
2023-03-30T02:42:16.781Z,9.62
2023-03-30T02:43:16.300Z,9.57
2023-03-30T02:44:16.848Z,9.54
2023-03-30T02:45:16.417Z,9.51
2023-03-30T02:46:17.059Z,9.46
2023-03-30T02:47:16.799Z,9.46
2023-03-30T02:48:16.346Z,9.41
2023-03-30T02:49:16.941Z,9.33
2023-03-30T02:50:16.548Z,9.30
2023-03-30T02:51:17.115Z,9.19
2023-03-30T02:52:17.232Z,9.18
2023-03-30T02:53:16.781Z,9.15
2023-03-30T02:54:16.351Z,9.13
2023-03-30T02:55:16.947Z,9.12
2023-03-30T02:56:16.488Z,9.10
2023-03-30T02:57:17.042Z,9.09
2023-03-30T02:58:16.710Z,9.05
2023-03-30T02:59:17.297Z,9.01
2023-03-30T03:00:16.870Z,8.99
2023-03-30T03:01:16.460Z,8.98
2023-03-30T03:02:16.808Z,8.95
2023-03-30T03:03:16.440Z,8.94
2023-03-30T03:04:17.194Z,8.94
2023-03-30T03:05:16.778Z,8.94
2023-03-30T03:06:16.310Z,8.95
2023-03-30T03:07:16.873Z,8.95
2023-03-30T03:08:16.435Z,8.95
2023-03-30T03:09:16.976Z,8.94
2023-03-30T03:10:16.503Z,8.96
2023-03-30T03:11:17.052Z,8.94
2023-03-30T03:12:17.066Z,8.94
2023-03-30T03:13:16.632Z,8.94
2023-03-30T03:14:17.196Z,8.95
2023-03-30T03:15:16.744Z,8.94
2023-03-30T03:16:17.358Z,8.94
2023-03-30T03:17:17.029Z,8.95
2023-03-30T03:18:16.618Z,8.94
2023-03-30T03:19:17.189Z,8.95
2023-03-30T03:20:16.747Z,8.95
2023-03-30T03:21:17.287Z,8.94
2023-03-30T03:22:16.453Z,8.88
2023-03-30T03:23:17.001Z,8.87
2023-03-30T03:24:16.555Z,8.87
2023-03-30T03:25:17.132Z,8.88
2023-03-30T03:26:16.680Z,8.87
2023-03-30T03:27:17.269Z,8.84
2023-03-30T03:28:16.825Z,8.87
2023-03-30T03:29:16.404Z,8.82
2023-03-30T03:30:16.991Z,8.84
2023-03-30T03:31:16.575Z,8.85
2023-03-30T03:32:16.763Z,8.88
2023-03-30T03:33:16.330Z,8.87
2023-03-30T03:34:16.919Z,8.85
2023-03-30T03:35:16.460Z,8.81
2023-03-30T03:36:17.045Z,8.84
2023-03-30T03:37:16.669Z,8.79
2023-03-30T03:38:17.249Z,8.78
2023-03-30T03:39:16.783Z,8.81
2023-03-30T03:40:16.355Z,8.81
2023-03-30T03:41:16.937Z,8.79
2023-03-30T03:42:16.911Z,8.81
2023-03-30T03:43:16.482Z,8.81
2023-03-30T03:44:17.080Z,8.82
2023-03-30T03:45:16.628Z,8.84
2023-03-30T03:46:17.201Z,8.85
2023-03-30T03:47:16.897Z,8.87
2023-03-30T03:48:16.439Z,8.88
2023-03-30T03:49:16.971Z,8.94
2023-03-30T03:50:16.497Z,8.92
2023-03-30T03:51:17.044Z,8.95
2023-03-30T03:52:16.759Z,8.98
2023-03-30T03:53:17.293Z,9.02
2023-03-30T03:54:16.854Z,9.03
2023-03-30T03:55:16.412Z,9.05
2023-03-30T03:56:17.014Z,9.03
2023-03-30T03:57:16.584Z,8.98
2023-03-30T03:58:17.247Z,8.99
2023-03-30T03:59:16.983Z,8.98
2023-03-30T04:00:16.565Z,8.99
2023-03-30T04:01:17.211Z,9.01
2023-03-30T04:02:16.949Z,9.01
2023-03-30T04:03:16.578Z,9.01
2023-03-30T04:04:17.272Z,9.02
2023-03-30T04:05:16.965Z,9.05
2023-03-30T04:06:16.504Z,9.05
2023-03-30T04:07:17.070Z,9.05
2023-03-30T04:08:16.651Z,9.06
2023-03-30T04:09:17.231Z,9.09
2023-03-30T04:10:16.812Z,9.10
2023-03-30T04:11:16.397Z,9.10
2023-03-30T04:12:16.876Z,9.13
2023-03-30T04:13:16.436Z,9.13
2023-03-30T04:14:17.005Z,9.13
2023-03-30T04:15:16.570Z,9.13
2023-03-30T04:16:17.127Z,9.15
2023-03-30T04:17:16.780Z,9.13
2023-03-30T04:18:16.391Z,9.18
2023-03-30T04:19:16.947Z,9.16
2023-03-30T04:20:16.539Z,9.19
2023-03-30T04:21:17.075Z,9.19
2023-03-30T04:22:16.661Z,9.16
2023-03-30T04:23:17.222Z,9.15
2023-03-30T04:24:16.789Z,9.10
2023-03-30T04:25:16.533Z,9.09
2023-03-30T04:26:17.083Z,9.06
2023-03-30T04:27:16.655Z,9.06
2023-03-30T04:28:17.267Z,9.05
2023-03-30T04:29:16.827Z,9.06
2023-03-30T04:30:16.401Z,9.05
2023-03-30T04:31:16.976Z,9.08
2023-03-30T04:32:16.605Z,9.06
2023-03-30T04:33:17.139Z,9.08
2023-03-30T04:34:16.692Z,9.08
2023-03-30T04:35:17.264Z,9.09
2023-03-30T04:36:16.798Z,9.06
2023-03-30T04:37:16.472Z,9.01
2023-03-30T04:38:17.045Z,9.05
2023-03-30T04:39:16.598Z,9.03
2023-03-30T04:40:17.194Z,9.03
2023-03-30T04:41:16.755Z,9.03
2023-03-30T04:42:16.452Z,9.02
2023-03-30T04:43:16.988Z,9.01
2023-03-30T04:44:16.529Z,8.99
2023-03-30T04:45:17.114Z,8.98
2023-03-30T04:46:16.720Z,8.99
2023-03-30T04:47:16.414Z,8.98
2023-03-30T04:48:16.964Z,8.98
2023-03-30T04:49:16.489Z,8.99
2023-03-30T04:50:17.064Z,8.98
2023-03-30T04:51:16.615Z,9.01
2023-03-30T04:52:16.581Z,9.02
2023-03-30T04:53:17.179Z,8.99
2023-03-30T04:54:16.774Z,8.99
2023-03-30T04:55:16.333Z,9.01
2023-03-30T04:56:16.919Z,9.01
2023-03-30T04:57:16.483Z,9.03
2023-03-30T04:58:17.105Z,9.02
2023-03-30T04:59:16.655Z,9.03
2023-03-30T05:00:17.206Z,9.03
2023-03-30T05:01:16.760Z,9.01
2023-03-30T05:02:16.354Z,9.02
2023-03-30T05:03:17.156Z,8.98
2023-03-30T05:04:16.829Z,8.96
2023-03-30T05:05:16.387Z,8.98
2023-03-30T05:06:16.984Z,8.98
2023-03-30T05:07:16.540Z,9.02
2023-03-30T05:08:17.161Z,9.02
2023-03-30T05:09:16.736Z,9.02
2023-03-30T05:10:16.324Z,9.03
2023-03-30T05:11:16.960Z,9.09
2023-03-30T05:12:16.678Z,9.12
2023-03-30T05:13:17.256Z,9.18
2023-03-30T05:14:16.878Z,9.19
2023-03-30T05:15:16.430Z,9.23
2023-03-30T05:16:17.033Z,9.25
2023-03-30T05:17:16.679Z,9.25
2023-03-30T05:18:16.366Z,9.26
2023-03-30T05:19:17.020Z,9.25
2023-03-30T05:20:16.634Z,9.27
2023-03-30T05:21:17.217Z,9.33
2023-03-30T05:22:16.458Z,9.36
2023-03-30T05:23:17.027Z,9.38
2023-03-30T05:24:16.614Z,9.38
2023-03-30T05:25:17.140Z,9.38
2023-03-30T05:26:16.753Z,9.26
2023-03-30T05:27:16.466Z,9.23
2023-03-30T05:28:17.175Z,9.25
2023-03-30T05:29:16.768Z,9.27
2023-03-30T05:30:17.319Z,9.33
2023-03-30T05:31:16.953Z,9.38
2023-03-30T05:32:16.576Z,9.38
2023-03-30T05:33:17.161Z,9.41
2023-03-30T05:34:16.730Z,9.40
2023-03-30T05:35:17.295Z,9.40
2023-03-30T05:36:16.901Z,9.38
2023-03-30T05:37:16.561Z,9.40
2023-03-30T05:38:17.100Z,9.38
2023-03-30T05:39:16.661Z,9.38
2023-03-30T05:40:17.231Z,9.37
2023-03-30T05:41:16.806Z,9.37
2023-03-30T05:42:16.332Z,9.34
2023-03-30T05:43:17.070Z,9.31
2023-03-30T05:44:16.608Z,9.30
2023-03-30T05:45:17.179Z,9.31
2023-03-30T05:46:16.733Z,9.27
2023-03-30T05:47:16.472Z,9.27
2023-03-30T05:48:17.016Z,9.26
2023-03-30T05:49:16.550Z,9.27
2023-03-30T05:50:17.120Z,9.29
2023-03-30T05:51:16.676Z,9.25
2023-03-30T05:52:16.964Z,9.26
2023-03-30T05:53:16.513Z,9.23
2023-03-30T05:54:17.062Z,9.25
2023-03-30T05:55:16.621Z,9.27
2023-03-30T05:56:17.195Z,9.31
2023-03-30T05:57:16.740Z,9.40
2023-03-30T05:58:16.387Z,9.41
2023-03-30T05:59:16.932Z,9.46
2023-03-30T06:00:16.477Z,9.53
2023-03-30T06:01:17.042Z,9.55
2023-03-30T06:02:16.789Z,9.55
2023-03-30T06:03:16.442Z,9.66
2023-03-30T06:04:17.230Z,9.71
2023-03-30T06:05:16.934Z,9.74
2023-03-30T06:06:16.513Z,9.78
2023-03-30T06:07:17.083Z,9.82
2023-03-30T06:08:16.654Z,9.82
2023-03-30T06:09:16.353Z,9.86
2023-03-30T06:10:16.982Z,9.81
2023-03-30T06:11:16.564Z,9.76
2023-03-30T06:12:17.200Z,9.76
2023-03-30T06:13:16.759Z,9.74
2023-03-30T06:14:17.340Z,9.75
2023-03-30T06:15:16.925Z,9.76
2023-03-30T06:16:16.585Z,9.80
2023-03-30T06:17:16.351Z,9.85
2023-03-30T06:18:16.935Z,9.84
2023-03-30T06:19:16.582Z,9.89
2023-03-30T06:20:17.124Z,9.96
2023-03-30T06:21:16.706Z,10.03
2023-03-30T06:22:16.615Z,10.09
2023-03-30T06:23:17.175Z,10.12
2023-03-30T06:24:16.726Z,10.16
2023-03-30T06:25:17.323Z,10.17
2023-03-30T06:26:16.892Z,10.21
2023-03-30T06:27:16.457Z,10.26
2023-03-30T06:28:17.021Z,10.27
2023-03-30T06:29:16.574Z,10.36
2023-03-30T06:30:17.159Z,10.37
2023-03-30T06:31:16.794Z,10.38
2023-03-30T06:32:16.974Z,10.38
2023-03-30T06:33:16.624Z,10.43
2023-03-30T06:34:17.198Z,10.44
2023-03-30T06:35:16.805Z,10.45
2023-03-30T06:36:16.505Z,10.45
2023-03-30T06:37:17.286Z,10.44
2023-03-30T06:38:16.870Z,10.45
2023-03-30T06:39:16.442Z,10.41
2023-03-30T06:40:17.322Z,10.34
2023-03-30T06:41:16.872Z,10.30
2023-03-30T06:42:16.831Z,10.33
2023-03-30T06:43:16.400Z,10.37
2023-03-30T06:44:16.977Z,10.38
2023-03-30T06:45:16.568Z,10.45
2023-03-30T06:46:17.159Z,10.51
2023-03-30T06:47:16.805Z,10.55
2023-03-30T06:48:16.593Z,10.62
2023-03-30T06:49:17.261Z,10.74
2023-03-30T06:50:16.795Z,10.81
2023-03-30T06:51:16.333Z,10.81
2023-03-30T06:52:17.187Z,10.83
2023-03-30T06:53:16.761Z,10.88
2023-03-30T06:54:17.306Z,10.93
2023-03-30T06:55:16.869Z,11.00
2023-03-30T06:56:16.446Z,11.09
2023-03-30T06:57:17.036Z,11.10
2023-03-30T06:58:16.696Z,11.11
2023-03-30T06:59:17.258Z,11.17
2023-03-30T07:00:16.801Z,11.17
2023-03-30T07:01:16.343Z,11.20
2023-03-30T07:02:16.680Z,11.28
2023-03-30T07:03:17.347Z,11.31
2023-03-30T07:04:17.057Z,11.30
2023-03-30T07:05:16.707Z,11.30
2023-03-30T07:07:16.824Z,11.40
2023-03-30T07:08:16.393Z,11.38
2023-03-30T07:09:16.950Z,11.41
2023-03-30T07:10:16.515Z,11.41
2023-03-30T07:11:17.105Z,11.44
2023-03-30T07:12:16.809Z,11.51
2023-03-30T07:13:16.364Z,11.50
2023-03-30T07:14:17.005Z,11.52
2023-03-30T07:15:16.581Z,11.55
2023-03-30T07:16:17.167Z,11.57
2023-03-30T07:17:16.827Z,11.59
2023-03-30T07:18:16.634Z,11.61
2023-03-30T07:19:17.298Z,11.62
2023-03-30T07:20:16.891Z,11.62
2023-03-30T07:21:16.470Z,11.66
2023-03-30T07:22:17.276Z,11.69
2023-03-30T07:23:16.874Z,11.69
2023-03-30T07:24:16.414Z,11.71
2023-03-30T07:25:16.994Z,11.73
2023-03-30T07:26:16.540Z,11.71
2023-03-30T07:27:17.123Z,11.72
2023-03-30T07:28:16.664Z,11.71
2023-03-30T07:29:17.229Z,11.68
2023-03-30T07:30:21.647Z,11.68
2023-03-30T07:31:16.385Z,11.65
2023-03-30T07:32:17.157Z,11.66
2023-03-30T07:33:16.783Z,11.64
2023-03-30T07:34:16.408Z,11.64
2023-03-30T07:35:16.989Z,11.57
2023-03-30T07:36:16.631Z,11.57
2023-03-30T07:37:20.400Z,11.55
2023-03-30T07:38:16.477Z,11.55
2023-03-30T07:39:17.141Z,11.55
2023-03-30T07:40:16.776Z,11.55
2023-03-30T07:41:16.466Z,11.51
2023-03-30T07:42:17.284Z,11.51
2023-03-30T07:43:16.906Z,11.51
2023-03-30T07:44:16.497Z,11.50
2023-03-30T07:45:17.048Z,11.48
2023-03-30T07:46:16.655Z,11.50
2023-03-30T07:47:17.315Z,11.50
2023-03-30T07:48:16.903Z,11.51
2023-03-30T07:49:16.621Z,11.48
2023-03-30T07:50:17.173Z,11.48
2023-03-30T07:51:16.749Z,11.48
2023-03-30T07:52:16.917Z,11.50
2023-03-30T07:53:16.539Z,11.50
2023-03-30T07:54:17.126Z,11.50
2023-03-30T07:55:16.685Z,11.47
2023-03-30T07:56:17.294Z,11.47
2023-03-30T07:57:16.864Z,11.47
2023-03-30T07:58:16.468Z,11.45
2023-03-30T07:59:17.015Z,11.43
2023-03-30T08:00:16.589Z,11.43
2023-03-30T08:01:17.156Z,11.41
2023-03-30T08:02:16.813Z,11.41
2023-03-30T08:03:16.490Z,11.43
2023-03-30T08:04:16.609Z,11.41
2023-03-30T08:05:16.478Z,11.38
2023-03-30T08:06:17.155Z,11.38
2023-03-30T08:07:16.759Z,11.40
2023-03-30T08:08:16.326Z,11.41
2023-03-30T08:09:16.879Z,11.38
2023-03-30T08:10:16.468Z,11.37
2023-03-30T08:11:17.017Z,11.37
2023-03-30T08:12:16.717Z,11.38
2023-03-30T08:13:18.259Z,11.38
2023-03-30T08:14:16.342Z,11.35
2023-03-30T08:15:16.949Z,11.35
2023-03-30T08:16:16.551Z,11.35
2023-03-30T08:17:17.179Z,11.35
2023-03-30T08:18:16.774Z,11.37
2023-03-30T08:19:16.332Z,11.35
2023-03-30T08:20:16.887Z,11.34
2023-03-30T08:21:16.446Z,11.34
2023-03-30T08:22:16.845Z,11.35
2023-03-30T08:23:16.406Z,11.38
2023-03-30T08:24:16.959Z,11.35
2023-03-30T08:25:16.534Z,11.34
2023-03-30T08:26:17.118Z,11.34
2023-03-30T08:27:16.697Z,11.33
2023-03-30T08:28:16.401Z,11.35
2023-03-30T08:29:16.971Z,11.37
2023-03-30T08:30:16.641Z,11.35
2023-03-30T08:31:17.198Z,11.34
2023-03-30T08:32:16.791Z,11.35
2023-03-30T08:33:16.399Z,11.35
2023-03-30T08:34:17.056Z,11.35
2023-03-30T08:35:16.594Z,11.33
2023-03-30T08:36:17.123Z,11.34
2023-03-30T08:37:16.679Z,11.30
2023-03-30T08:38:17.227Z,11.31
2023-03-30T08:39:17.105Z,11.30
2023-03-30T08:40:18.583Z,11.31
2023-03-30T08:41:16.364Z,11.31
2023-03-30T08:42:17.068Z,11.28
2023-03-30T08:43:16.606Z,11.33
2023-03-30T08:44:17.181Z,11.34
2023-03-30T08:45:16.730Z,11.34
2023-03-30T08:46:17.354Z,11.35
2023-03-30T08:47:17.035Z,11.40
2023-03-30T08:48:16.589Z,11.37
2023-03-30T08:49:17.133Z,11.41
2023-03-30T08:50:16.708Z,11.44
2023-03-30T08:51:17.288Z,11.44
2023-03-30T08:52:16.882Z,11.44
2023-03-30T08:53:16.450Z,11.44
2023-03-30T08:54:17.000Z,11.50
2023-03-30T08:55:16.586Z,11.48
2023-03-30T08:56:17.178Z,11.51
2023-03-30T08:57:17.837Z,11.52
2023-03-30T08:58:16.443Z,11.54
2023-03-30T08:59:17.013Z,11.54
2023-03-30T09:00:16.595Z,11.55
2023-03-30T09:01:17.273Z,11.52
2023-03-30T09:02:16.936Z,11.51
2023-03-30T09:03:16.535Z,11.54
2023-03-30T09:04:17.211Z,11.54
2023-03-30T09:05:16.799Z,11.54
2023-03-30T09:06:16.582Z,11.57
2023-03-30T09:07:17.157Z,11.57
2023-03-30T09:08:16.715Z,11.58
2023-03-30T09:09:17.278Z,11.57
2023-03-30T09:10:16.836Z,11.58
2023-03-30T09:11:16.409Z,11.58
2023-03-30T09:12:17.026Z,11.62
2023-03-30T09:13:16.573Z,11.65
2023-03-30T09:14:17.140Z,11.64
2023-03-30T09:15:16.898Z,11.62
2023-03-30T09:16:16.505Z,11.66
2023-03-30T09:17:17.175Z,11.69
2023-03-30T09:18:16.778Z,11.71
2023-03-30T09:19:16.379Z,11.75
2023-03-30T09:20:16.978Z,11.76
2023-03-30T09:21:16.592Z,11.82
2023-03-30T09:22:16.545Z,11.85
2023-03-30T09:23:17.093Z,11.88
2023-03-30T09:24:16.644Z,11.90
2023-03-30T09:25:17.250Z,11.90
2023-03-30T09:26:16.865Z,11.93
2023-03-30T09:27:16.436Z,11.96
2023-03-30T09:28:16.992Z,11.97
2023-03-30T09:29:16.548Z,12.03
2023-03-30T09:30:17.123Z,12.06
2023-03-30T09:31:16.864Z,12.06
2023-03-30T09:32:16.439Z,12.08
2023-03-30T09:33:17.070Z,12.08
2023-03-30T09:34:16.599Z,12.07
2023-03-30T09:35:17.194Z,12.07
2023-03-30T09:36:16.840Z,12.03
2023-03-30T09:37:16.582Z,12.06
2023-03-30T09:38:17.166Z,12.04
2023-03-30T09:39:16.714Z,12.03
2023-03-30T09:40:17.267Z,11.99
2023-03-30T09:41:16.867Z,12.03
2023-03-30T09:42:16.632Z,12.03
2023-03-30T09:43:17.208Z,11.99
2023-03-30T09:44:16.754Z,11.94
2023-03-30T09:45:17.303Z,11.99
2023-03-30T09:46:16.913Z,11.93
2023-03-30T09:47:16.556Z,11.92
2023-03-30T09:48:17.117Z,11.92
2023-03-30T09:49:16.654Z,11.92
2023-03-30T09:50:17.311Z,11.96
2023-03-30T09:51:16.945Z,11.92
2023-03-30T09:52:16.800Z,11.90
2023-03-30T09:53:16.365Z,11.88
2023-03-30T09:54:16.927Z,11.90
2023-03-30T09:55:16.522Z,11.94
2023-03-30T09:56:17.100Z,12.01
2023-03-30T09:57:16.632Z,12.00
2023-03-30T09:58:17.289Z,12.03
2023-03-30T09:59:16.826Z,12.06
2023-03-30T10:00:16.402Z,12.04
2023-03-30T10:01:16.991Z,12.07
2023-03-30T10:02:16.817Z,12.10
2023-03-30T10:03:16.681Z,12.12
2023-03-30T10:04:16.593Z,12.16
2023-03-30T10:05:16.704Z,12.19
2023-03-30T10:06:17.290Z,12.23
2023-03-30T10:07:18.685Z,12.23
2023-03-30T10:08:16.512Z,12.21
2023-03-30T10:09:17.069Z,12.25
2023-03-30T10:10:16.631Z,12.23
2023-03-30T10:11:17.226Z,12.23
2023-03-30T10:12:16.423Z,12.24
2023-03-30T10:13:17.004Z,12.30
2023-03-30T10:14:16.605Z,12.32
2023-03-30T10:15:17.172Z,12.34
2023-03-30T10:16:16.826Z,12.35
2023-03-30T10:17:16.534Z,12.47
2023-03-30T10:18:17.120Z,12.53
2023-03-30T10:19:16.708Z,12.49
2023-03-30T10:20:17.289Z,12.55
2023-03-30T10:21:16.871Z,12.63
2023-03-30T10:22:16.724Z,12.63
2023-03-30T10:23:17.296Z,12.65
2023-03-30T10:24:16.860Z,12.63
2023-03-30T10:25:16.424Z,12.66
2023-03-30T10:26:17.053Z,12.69
2023-03-30T10:27:16.604Z,12.66
2023-03-30T10:28:17.207Z,12.66
2023-03-30T10:29:16.785Z,12.60
2023-03-30T10:30:16.342Z,12.60
2023-03-30T10:31:16.886Z,12.72
2023-03-30T10:32:16.651Z,12.72
2023-03-30T10:33:17.184Z,12.70
2023-03-30T10:34:16.776Z,12.75
2023-03-30T10:35:17.299Z,12.79
2023-03-30T10:36:16.894Z,12.72
2023-03-30T10:37:16.605Z,12.66
2023-03-30T10:38:17.184Z,12.63
2023-03-30T10:39:16.789Z,12.62
2023-03-30T10:40:16.372Z,12.60
2023-03-30T10:41:16.931Z,12.69
2023-03-30T10:42:16.942Z,12.73
2023-03-30T10:43:16.502Z,12.75
2023-03-30T10:44:17.062Z,12.73
2023-03-30T10:45:16.670Z,12.76
2023-03-30T10:46:20.278Z,12.79
2023-03-30T10:47:16.502Z,12.80
2023-03-30T10:48:17.216Z,12.82
2023-03-30T10:49:16.841Z,12.77
2023-03-30T10:50:16.422Z,12.77
2023-03-30T10:51:17.049Z,12.73
2023-03-30T10:52:16.700Z,12.76
2023-03-30T10:53:17.262Z,12.79
2023-03-30T10:54:16.835Z,12.82
2023-03-30T10:55:16.393Z,12.86
2023-03-30T10:56:16.954Z,12.84
2023-03-30T10:57:16.602Z,12.84
2023-03-30T10:58:17.282Z,12.82
2023-03-30T10:59:16.874Z,12.86
2023-03-30T11:00:16.433Z,12.94
2023-03-30T11:01:16.971Z,13.00
2023-03-30T11:02:16.476Z,13.06
2023-03-30T11:03:17.109Z,13.10
2023-03-30T11:04:23.498Z,13.34
2023-03-30T11:05:16.960Z,13.52
2023-03-30T11:06:16.528Z,13.66
2023-03-30T11:07:17.093Z,13.94
2023-03-30T11:08:16.657Z,13.93
2023-03-30T11:09:17.227Z,13.87
2023-03-30T11:10:16.772Z,14.00
2023-03-30T11:11:16.342Z,13.89
2023-03-30T11:12:16.454Z,13.92
2023-03-30T11:13:17.037Z,13.82
2023-03-30T11:14:16.600Z,13.86
2023-03-30T11:15:17.164Z,13.97
2023-03-30T11:16:16.782Z,14.11
2023-03-30T11:17:16.392Z,14.14
2023-03-30T11:18:17.044Z,13.82
2023-03-30T11:19:16.667Z,13.69
2023-03-30T11:20:17.311Z,13.62
2023-03-30T11:21:16.850Z,13.52
2023-03-30T11:22:16.619Z,13.52
2023-03-30T11:23:17.249Z,13.56
2023-03-30T11:24:16.778Z,13.41
2023-03-30T11:25:16.671Z,13.42
2023-03-30T11:26:17.283Z,13.41
2023-03-30T11:27:16.852Z,13.46
2023-03-30T11:28:16.416Z,13.43
2023-03-30T11:29:16.969Z,13.41
2023-03-30T11:30:16.560Z,13.38
2023-03-30T11:31:17.135Z,13.41
2023-03-30T11:32:17.010Z,13.45
2023-03-30T11:33:16.705Z,13.49
2023-03-30T11:34:17.254Z,13.48
2023-03-30T11:35:16.889Z,13.42
2023-03-30T11:36:16.497Z,13.48
2023-03-30T11:37:17.178Z,13.37
2023-03-30T11:38:16.734Z,13.39
2023-03-30T11:39:29.327Z,13.39
2023-03-30T11:40:17.350Z,13.43
2023-03-30T11:41:17.115Z,13.49
2023-03-30T11:42:16.841Z,13.48
2023-03-30T11:43:16.397Z,13.53
2023-03-30T11:44:16.938Z,13.70
2023-03-30T11:45:16.528Z,13.75
2023-03-30T11:46:17.129Z,13.70
2023-03-30T11:47:16.782Z,13.72
2023-03-30T11:48:16.435Z,13.77
2023-03-30T11:49:17.062Z,13.86
2023-03-30T11:50:16.639Z,13.80
2023-03-30T11:51:17.195Z,13.77
2023-03-30T11:52:16.949Z,13.86
2023-03-30T11:53:16.534Z,13.84
2023-03-30T11:54:17.082Z,13.84
2023-03-30T11:55:16.634Z,13.89
2023-03-30T11:56:17.206Z,13.94
2023-03-30T11:57:16.782Z,13.98
2023-03-30T11:58:16.385Z,14.04
2023-03-30T11:59:16.953Z,13.93
2023-03-30T12:00:16.533Z,13.90
2023-03-30T12:01:17.130Z,13.96
2023-03-30T12:02:16.488Z,13.89
2023-03-30T12:03:17.214Z,13.90
2023-03-30T12:04:16.974Z,13.93
2023-03-30T12:05:16.608Z,13.93
2023-03-30T12:06:17.140Z,13.97
2023-03-30T12:07:16.697Z,13.97
2023-03-30T12:08:17.238Z,14.04
2023-03-30T12:09:16.776Z,14.07
2023-03-30T12:10:16.349Z,14.11
2023-03-30T12:11:16.859Z,14.10
2023-03-30T12:12:17.027Z,14.18
2023-03-30T12:13:16.593Z,14.31
2023-03-30T12:14:17.177Z,14.31
2023-03-30T12:15:16.758Z,14.28
2023-03-30T12:16:16.361Z,14.29
2023-03-30T12:17:17.010Z,14.35
2023-03-30T12:18:16.537Z,14.32
2023-03-30T12:19:17.152Z,14.32
2023-03-30T12:20:16.767Z,14.35
2023-03-30T12:21:16.309Z,14.39
2023-03-30T12:22:17.091Z,14.62
2023-03-30T12:23:16.645Z,14.80
2023-03-30T12:24:17.332Z,14.84
2023-03-30T12:25:16.893Z,14.95
2023-03-30T12:26:16.465Z,15.07
2023-03-30T12:27:17.032Z,15.07
2023-03-30T12:28:16.578Z,15.19
2023-03-30T12:30:16.625Z,15.28
2023-03-30T12:31:17.229Z,15.31
2023-03-30T12:32:16.607Z,15.31
2023-03-30T12:33:17.158Z,15.35
2023-03-30T12:34:16.719Z,15.49
2023-03-30T12:35:16.355Z,15.36
2023-03-30T12:36:16.984Z,15.43
2023-03-30T12:37:16.540Z,15.49
2023-03-30T12:38:18.212Z,15.56
2023-03-30T12:39:17.172Z,15.53
2023-03-30T12:40:16.749Z,15.52
2023-03-30T12:41:17.340Z,15.53
2023-03-30T12:42:16.901Z,15.50
2023-03-30T12:43:16.463Z,15.50
2023-03-30T12:44:17.040Z,15.57
2023-03-30T12:45:16.614Z,15.56
2023-03-30T12:46:17.229Z,15.59
2023-03-30T12:47:16.893Z,15.67
2023-03-30T12:48:16.449Z,15.70
2023-03-30T12:49:17.004Z,15.70
2023-03-30T12:50:16.564Z,15.70
2023-03-30T12:51:17.137Z,15.74
2023-03-30T12:52:17.035Z,15.74
2023-03-30T12:53:16.569Z,15.67
2023-03-30T12:54:17.092Z,15.62
2023-03-30T12:55:16.656Z,15.42
2023-03-30T12:56:17.225Z,15.35
2023-03-30T12:57:16.932Z,15.28
2023-03-30T12:58:16.600Z,15.07
2023-03-30T12:59:17.150Z,15.07
2023-03-30T13:00:16.713Z,15.14
2023-03-30T13:01:17.361Z,15.08
2023-03-30T13:02:16.837Z,15.11